Time;durP1;ratioP1;P1;durP2;ratioP2;P2;SDS_P1;SDS_P2;PMS_P1;PMS_P2;Temp;Humidity;BMP_temperature;BMP_pressure;BME280_temperature;BME280_humidity;BME280_pressure;Samples;Min_cycle;Max_cycle;Signal;HPM_P1;HPM_P2
2021/06/03 00:00:46;;;;;;;50.13;6.13;;;19.70;24.60;;;;;;6208387;23;20414;-82
2021/06/03 00:03:21;;;;;;;54.63;5.70;;;19.60;24.50;;;;;;6215584;23;20400;-84
2021/06/03 00:06:09;;;;;;;49.60;5.30;;;19.60;24.60;;;;;;6199108;23;20885;-86
2021/06/03 00:08:43;;;;;;;48.70;4.50;;;19.60;25.20;;;;;;6227013;23;20440;-84
2021/06/03 00:11:10;;;;;;;48.40;5.40;;;19.40;26.60;;;;;;6227099;23;20378;-85
2021/06/03 00:13:51;;;;;;;;;;;;;;;;;;;;;
2021/06/03 00:16:21;;;;;;;48.33;4.70;;;19.20;27.90;;;;;;6226623;23;20398;-82
2021/06/03 00:18:56;;;;;;;47.40;5.10;;;19.00;28.80;;;;;;6215540;23;20415;-82
2021/06/03 00:21:28;;;;;;;47.30;5.00;;;19.10;28.80;;;;;;6216955;23;20374;-83
2021/06/03 00:23:59;;;;;;;48.20;5.77;;;19.10;29.00;;;;;;6216976;23;20400;-83
2021/06/03 00:26:28;;;;;;;48.60;5.60;;;19.00;29.60;;;;;;6216778;23;20404;-85
2021/06/03 00:29:09;;;;;;;;;;;;;;;;;;;;;
2021/06/03 00:31:51;;;;;;;;;;;;;;;;;;;;;
2021/06/03 00:34:23;;;;;;;47.83;5.40;;;18.90;30.70;;;;;;6216447;23;20879;-85
2021/06/03 00:36:54;;;;;;;49.40;6.00;;;18.80;30.10;;;;;;6226534;23;20898;-82
2021/06/03 00:39:27;;;;;;;53.67;5.40;;;18.80;31.10;;;;;;6216565;23;20466;-83
2021/06/03 00:41:53;;;;;;;47.33;5.70;;;18.70;34.10;;;;;;6226782;23;20416;-84
2021/06/03 00:44:22;;;;;;;45.93;4.90;;;18.50;34.50;;;;;;6216677;23;20490;-83
2021/06/03 00:46:49;;;;;;;43.90;4.53;;;18.40;38.50;;;;;;6225365;23;20748;-83
2021/06/03 00:49:15;;;;;;;45.87;4.40;;;18.30;39.90;;;;;;6216176;23;20412;-82
2021/06/03 00:51:42;;;;;;;46.17;4.60;;;18.20;42.00;;;;;;6216570;23;20370;-82
2021/06/03 00:54:12;;;;;;;44.63;5.17;;;18.20;42.70;;;;;;6216536;23;20508;-82
2021/06/03 00:56:39;;;;;;;43.47;6.27;;;18.20;43.30;;;;;;6226618;23;20451;-82
2021/06/03 00:59:05;;;;;;;44.50;5.67;;;18.10;43.90;;;;;;6215966;23;20431;-82
2021/06/03 01:01:32;;;;;;;45.10;5.70;;;18.10;45.10;;;;;;6216589;23;20401;-83
2021/06/03 01:03:59;;;;;;;44.60;4.83;;;18.00;46.80;;;;;;6214429;23;20407;-85
2021/06/03 01:06:31;;;;;;;43.07;4.43;;;17.90;48.60;;;;;;6216127;23;20392;-84
2021/06/03 01:09:06;;;;;;;43.93;5.30;;;17.90;51.30;;;;;;6226451;23;20378;-85
2021/06/03 01:11:43;;;;;;;41.10;4.37;;;17.80;52.20;;;;;;6216042;23;20538;-83
2021/06/03 01:14:15;;;;;;;41.40;4.30;;;17.80;52.70;;;;;;6225995;23;20386;-84
2021/06/03 01:16:49;;;;;;;44.97;5.83;;;17.90;53.00;;;;;;6216248;23;20407;-85
2021/06/03 01:19:22;;;;;;;45.23;5.20;;;17.80;53.10;;;;;;6215674;23;20403;-85
2021/06/03 01:21:56;;;;;;;42.17;5.37;;;17.60;58.60;;;;;;6216387;23;20400;-84
2021/06/03 01:24:28;;;;;;;45.70;5.30;;;17.50;64.60;;;;;;6216283;23;20694;-82
2021/06/03 01:26:57;;;;;;;42.53;5.93;;;17.40;69.30;;;;;;6216072;23;20367;-84
2021/06/03 01:29:26;;;;;;;41.90;4.63;;;17.20;74.50;;;;;;6225823;23;20378;-84
2021/06/03 01:31:54;;;;;;;45.70;5.07;;;17.00;78.20;;;;;;6214822;23;20404;-85
2021/06/03 01:34:22;;;;;;;40.60;4.80;;;17.00;83.30;;;;;;6225948;23;20400;-85
2021/06/03 01:36:49;;;;;;;39.40;4.53;;;17.00;87.30;;;;;;6215726;23;20432;-82
2021/06/03 01:39:16;;;;;;;40.17;4.60;;;17.00;86.20;;;;;;6225935;23;20419;-83
2021/06/03 01:41:45;;;;;;;40.03;4.70;;;17.10;87.80;;;;;;6225641;23;20415;-83
2021/06/03 01:44:15;;;;;;;41.20;4.70;;;17.20;83.50;;;;;;6225635;23;21072;-83
2021/06/03 01:46:44;;;;;;;40.80;5.83;;;17.30;80.20;;;;;;6216170;23;20698;-83
2021/06/03 01:49:10;;;;;;;41.10;6.13;;;17.20;80.60;;;;;;6214079;23;20400;-83
2021/06/03 01:51:37;;;;;;;42.10;6.13;;;17.10;83.40;;;;;;6225822;23;20407;-83
2021/06/03 01:54:06;;;;;;;39.87;5.67;;;17.00;88.30;;;;;;6225636;23;20403;-84
2021/06/03 01:56:41;;;;;;;42.20;6.30;;;16.90;92.30;;;;;;6225620;23;20444;-82
2021/06/03 01:59:19;;;;;;;41.00;6.70;;;16.80;94.90;;;;;;6225673;23;20439;-85
2021/06/03 02:01:53;;;;;;;39.07;5.43;;;16.70;97.50;;;;;;6225324;23;20495;-81
2021/06/03 02:04:22;;;;;;;36.93;6.30;;;16.60;99.90;;;;;;6225663;23;20404;-83
2021/06/03 02:06:48;;;;;;;36.40;6.30;;;16.50;99.90;;;;;;6215285;23;20417;-82
2021/06/03 02:09:15;;;;;;;37.50;7.13;;;16.50;99.90;;;;;;6215826;23;20410;-82
2021/06/03 02:11:43;;;;;;;35.93;6.87;;;16.50;99.90;;;;;;6225603;23;20891;-84
2021/06/03 02:14:13;;;;;;;36.60;5.93;;;16.40;99.90;;;;;;6225708;23;20409;-83
2021/06/03 02:16:43;;;;;;;37.50;6.40;;;16.40;99.90;;;;;;6215675;23;20434;-82
2021/06/03 02:19:16;;;;;;;36.17;6.63;;;16.40;99.90;;;;;;6224064;23;20383;-84
2021/06/03 02:21:47;;;;;;;36.10;7.90;;;16.40;99.90;;;;;;6225705;23;20416;-84
2021/06/03 02:24:20;;;;;;;36.10;7.30;;;16.40;99.90;;;;;;6215855;23;20491;-83
2021/06/03 02:26:53;;;;;;;36.20;6.77;;;16.40;99.90;;;;;;6215482;23;20717;-83
2021/06/03 02:29:23;;;;;;;35.93;7.00;;;16.40;99.90;;;;;;6215839;23;20396;-84
2021/06/03 02:31:53;;;;;;;39.53;6.00;;;16.50;99.90;;;;;;6214806;23;20404;-84
2021/06/03 02:34:23;;;;;;;37.90;6.73;;;16.60;99.90;;;;;;6215330;23;20396;-84
2021/06/03 02:36:54;;;;;;;36.53;5.77;;;16.60;99.90;;;;;;6215064;23;20980;-83
2021/06/03 02:39:20;;;;;;;38.37;6.63;;;16.60;99.90;;;;;;6215697;23;20392;-83
2021/06/03 02:41:49;;;;;;;37.63;5.93;;;16.60;99.90;;;;;;6225330;23;20883;-84
2021/06/03 02:44:15;;;;;;;37.13;6.40;;;16.60;99.90;;;;;;6215478;23;20431;-83
2021/06/03 02:47:21;;;;;;;;;;;;;;;;;;;;;
2021/06/03 02:49:59;;;;;;;35.37;6.00;;;16.50;99.90;;;;;;6132749;23;20393;-85
2021/06/03 02:52:40;;;;;;;35.07;6.60;;;16.40;99.90;;;;;;6123482;23;20542;-85
2021/06/03 02:55:09;;;;;;;35.27;5.80;;;16.50;99.90;;;;;;6132995;23;20458;-83
2021/06/03 02:57:37;;;;;;;41.27;5.80;;;16.40;99.90;;;;;;6142732;23;20424;-85
2021/06/03 03:00:07;;;;;;;35.40;5.67;;;16.50;99.90;;;;;;6162386;23;20438;-75
2021/06/03 03:02:34;;;;;;;36.40;5.63;;;16.40;99.90;;;;;;6234280;23;20441;-76
2021/06/03 03:05:01;;;;;;;35.47;5.57;;;16.40;99.90;;;;;;6244892;23;20438;-76
2021/06/03 03:07:28;;;;;;;35.17;6.17;;;16.40;99.90;;;;;;6245811;23;20794;-76
2021/06/03 03:09:54;;;;;;;36.97;6.33;;;16.30;99.90;;;;;;6245474;23;20878;-75
2021/06/03 03:12:20;;;;;;;38.10;6.00;;;16.30;99.90;;;;;;6255744;23;20770;-76
2021/06/03 03:14:47;;;;;;;35.87;7.73;;;16.10;99.90;;;;;;6245947;23;20395;-77
2021/06/03 03:17:13;;;;;;;36.17;8.30;;;16.00;99.90;;;;;;6244030;23;20455;-77
2021/06/03 03:20:22;;;;;;;;;;;;;;;;;;;;;
2021/06/03 03:22:50;;;;;;;36.60;9.20;;;15.90;99.90;;;;;;6243285;23;20501;-77
2021/06/03 03:54:16;;;;;;;35.57;11.10;;;15.50;99.90;;;;;;5852540;24;20549;-82
2021/06/03 03:56:43;;;;;;;40.70;13.27;;;15.60;99.90;;;;;;6023453;23;20448;-82
2021/06/03 03:59:12;;;;;;;34.60;11.43;;;15.40;99.90;;;;;;6089184;23;20985;-82
2021/06/03 04:01:53;;;;;;;;;;;;;;;;;;;;;
2021/06/03 04:49:51;;;;;;;39.67;15.37;;;15.90;99.90;;;;;;6191791;22;20445;-87
2021/06/03 04:52:38;;;;;;;;;;;;;;;;;;;;;
2021/06/03 04:55:07;;;;;;;38.53;10.33;;;16.40;99.90;;;;;;6191095;23;20919;-82
2021/06/03 04:57:35;;;;;;;36.73;10.00;;;16.60;99.90;;;;;;6261003;22;20453;-79
2021/06/03 05:00:04;;;;;;;37.60;10.17;;;16.70;99.90;;;;;;6277089;22;20489;-81
2021/06/03 05:02:32;;;;;;;38.80;8.00;;;16.90;99.90;;;;;;6276013;22;20484;-84
2021/06/03 05:04:58;;;;;;;39.60;7.87;;;17.10;99.90;;;;;;6277489;22;20398;-81
2021/06/03 05:07:26;;;;;;;37.57;7.27;;;17.20;99.90;;;;;;6277005;22;20398;-84
2021/06/03 05:09:52;;;;;;;41.37;7.00;;;17.50;99.90;;;;;;6277624;22;20797;-81
2021/06/03 05:12:19;;;;;;;40.87;6.10;;;17.70;99.90;;;;;;6277016;22;20986;-82
2021/06/03 05:14:45;;;;;;;43.80;6.10;;;18.00;99.90;;;;;;6287334;22;20410;-81
2021/06/03 05:17:12;;;;;;;43.47;6.70;;;18.10;98.90;;;;;;6275864;22;20470;-80
2021/06/03 05:19:38;;;;;;;43.50;6.27;;;18.30;97.80;;;;;;6277257;22;20727;-83
2021/06/03 05:22:05;;;;;;;44.80;6.63;;;18.70;94.30;;;;;;6277403;22;20402;-79
2021/06/03 05:24:33;;;;;;;44.90;5.97;;;18.80;93.50;;;;;;6277341;22;20532;-79
2021/06/03 05:27:00;;;;;;;45.20;5.13;;;19.20;83.20;;;;;;6277260;22;20429;-79
2021/06/03 05:29:28;;;;;;;46.20;4.93;;;19.50;77.50;;;;;;6277206;22;20430;-79
2021/06/03 05:31:54;;;;;;;48.30;4.80;;;19.80;68.60;;;;;;6285966;22;20473;-79
2021/06/03 05:34:21;;;;;;;51.00;6.00;;;20.10;63.80;;;;;;6277233;22;20878;-79
2021/06/03 05:36:47;;;;;;;51.53;7.00;;;20.30;57.40;;;;;;6276633;22;20713;-79
2021/06/03 05:39:14;;;;;;;51.47;7.47;;;20.10;53.80;;;;;;6277115;22;20399;-79
2021/06/03 05:41:42;;;;;;;50.90;6.80;;;20.00;54.30;;;;;;6266851;22;20430;-79
2021/06/03 05:44:11;;;;;;;50.43;7.20;;;20.10;55.30;;;;;;6256108;23;20912;-79
2021/06/03 05:46:39;;;;;;;52.50;7.37;;;20.20;59.20;;;;;;6245623;23;20439;-79
2021/06/03 05:49:07;;;;;;;51.17;7.30;;;20.70;51.70;;;;;;6243797;23;20435;-79
2021/06/03 05:51:33;;;;;;;53.80;6.43;;;21.40;42.50;;;;;;6245288;23;20474;-76
2021/06/03 05:54:00;;;;;;;57.97;16.53;;;21.90;37.10;;;;;;6245112;23;20370;-80
2021/06/03 05:56:28;;;;;;;58.60;12.43;;;22.40;32.40;;;;;;6244615;23;20446;-78
2021/06/03 05:58:57;;;;;;;57.20;10.27;;;22.70;27.30;;;;;;6245301;23;20398;-79
2021/06/03 06:01:24;;;;;;;60.40;9.70;;;22.70;24.80;;;;;;6245000;23;20422;-82
2021/06/03 06:03:56;;;;;;;56.00;5.90;;;22.50;25.70;;;;;;6244294;23;20435;-83
2021/06/03 06:06:25;;;;;;;55.33;5.70;;;22.70;25.40;;;;;;6256401;23;20399;-82
2021/06/03 06:08:53;;;;;;;55.60;7.77;;;23.10;24.90;;;;;;6245754;23;20408;-83
2021/06/03 06:11:20;;;;;;;61.20;11.00;;;23.70;24.10;;;;;;6256004;23;20422;-82
2021/06/03 06:13:48;;;;;;;59.30;18.60;;;23.70;21.80;;;;;;6255729;23;20789;-84
2021/06/03 06:16:17;;;;;;;56.30;9.53;;;23.80;20.80;;;;;;6245616;23;20404;-82
2021/06/03 06:18:44;;;;;;;57.70;10.07;;;23.80;19.60;;;;;;6244341;23;20431;-84
2021/06/03 06:21:11;;;;;;;60.00;28.07;;;23.80;20.20;;;;;;6245465;23;20378;-80
2021/06/03 06:23:39;;;;;;;62.47;36.83;;;23.60;21.00;;;;;;6255872;23;20426;-83
2021/06/03 06:26:08;;;;;;;51.97;5.20;;;23.40;22.20;;;;;;6245758;23;20399;-85
2021/06/03 06:28:35;;;;;;;49.77;5.13;;;23.30;22.10;;;;;;6245517;23;20422;-84
2021/06/03 06:31:02;;;;;;;48.67;5.17;;;23.30;22.90;;;;;;6245281;23;20431;-83
2021/06/03 06:33:30;;;;;;;48.80;6.90;;;23.30;23.00;;;;;;6243795;23;20377;-80
2021/06/03 06:36:41;;;;;;;;;;;;;;;;;;;;;
2021/06/03 06:39:43;;;;;;;;;;;;;;;;;;;;;
2021/06/03 06:45:41;;;;;;;;;;;;;;;;;;;;;
2021/06/03 06:48:43;;;;;;;48.90;5.40;;;22.20;34.50;;;;;;6102966;23;20446;-85
2021/06/03 07:41:34;;;;;;;;;;;;;;;;;;;;;
2021/06/03 07:48:01;;;;;;;;;;;;;;;;;;;;;
2021/06/03 07:51:15;;;;;;;;;;;;;;;;;;;;;
2021/06/03 09:09:28;;;;;;;55.13;6.40;;;22.80;47.30;;;;;;6235447;23;21021;-83
2021/06/03 09:12:35;;;;;;;46.60;6.10;;;22.80;49.00;;;;;;6091459;23;20502;-85
2021/06/03 09:15:16;;;;;;;45.00;6.87;;;22.60;52.80;;;;;;6236260;23;20422;-83
2021/06/03 09:17:47;;;;;;;45.40;10.00;;;22.30;72.50;;;;;;6237754;23;20478;-83
2021/06/03 09:20:14;;;;;;;48.63;10.10;;;21.80;99.90;;;;;;6255408;23;20414;-81
2021/06/03 09:22:47;;;;;;;48.30;14.17;;;21.40;99.90;;;;;;6254923;23;20705;-83
2021/06/03 09:25:35;;;;;;;49.83;36.80;;;21.20;99.90;;;;;;6244917;23;20405;-83
2021/06/03 09:28:26;;;;;;;55.53;43.77;;;21.00;99.90;;;;;;6244462;23;20875;-81
2021/06/03 09:31:12;;;;;;;61.37;54.07;;;20.30;99.90;;;;;;6254715;23;20948;-79
2021/06/03 09:33:54;;;;;;;56.50;41.37;;;19.80;99.90;;;;;;6242446;23;20418;-81
2021/06/03 09:36:33;;;;;;;137.17;128.40;;;19.50;99.90;;;;;;6254795;23;20521;-81
2021/06/03 09:39:06;;;;;;;232.37;220.43;;;19.40;99.90;;;;;;6244979;23;20498;-82
2021/06/03 09:41:35;;;;;;;285.57;272.53;;;19.40;99.90;;;;;;6255108;22;20431;-81
2021/06/03 09:44:10;;;;;;;336.07;321.37;;;19.40;99.90;;;;;;6244995;23;20757;-83
2021/06/03 09:46:58;;;;;;;;;;;;;;;;;;;;;
2021/06/03 09:50:07;;;;;;;379.90;363.70;;;19.60;99.90;;;;;;6253562;23;20779;-86
2021/06/03 09:52:44;;;;;;;357.90;341.93;;;19.80;99.90;;;;;;6246373;23;20426;-87
2021/06/03 09:55:18;;;;;;;355.77;340.07;;;20.10;99.90;;;;;;6256526;23;20406;-87
2021/06/03 09:58:02;;;;;;;;;;;;;;;;;;;;;
2021/06/03 10:00:46;;;;;;;311.03;296.93;;;20.50;99.90;;;;;;6178107;23;20411;-84
2021/06/03 10:03:21;;;;;;;309.83;296.00;;;20.70;99.90;;;;;;6244499;23;20875;-86
2021/06/03 10:06:09;;;;;;;398.37;381.60;;;21.20;99.90;;;;;;6256106;23;20470;-88
2021/06/03 10:08:56;;;;;;;331.60;316.97;;;21.70;99.90;;;;;;6245775;23;20428;-83
2021/06/03 10:11:53;;;;;;;146.27;136.73;;;21.70;99.90;;;;;;6246280;23;20449;-84
2021/06/03 10:14:33;;;;;;;;;;;;;;;;;;;;;
2021/06/03 10:17:20;;;;;;;72.73;65.40;;;22.70;99.90;;;;;;6182184;23;20430;-82
2021/06/03 10:19:52;;;;;;;84.63;76.87;;;22.80;99.90;;;;;;6256435;23;20434;-86
2021/06/03 10:22:24;;;;;;;64.23;34.20;;;23.10;99.90;;;;;;6256335;23;20382;-85
2021/06/03 10:25:01;;;;;;;115.53;106.37;;;23.20;99.90;;;;;;6245743;23;20494;-85
2021/06/03 10:27:33;;;;;;;101.83;92.87;;;23.70;99.90;;;;;;6255757;23;20396;-85
2021/06/03 10:30:00;;;;;;;55.57;14.47;;;24.10;99.90;;;;;;6255873;23;20402;-84
2021/06/03 10:32:29;;;;;;;54.30;9.57;;;24.00;99.90;;;;;;6254349;23;20388;-85
2021/06/03 10:34:57;;;;;;;55.67;12.87;;;24.20;96.50;;;;;;6256005;23;20434;-84
2021/06/03 10:37:27;;;;;;;59.97;21.13;;;24.60;97.00;;;;;;6255837;23;20427;-85
2021/06/03 10:39:55;;;;;;;60.27;22.17;;;24.60;88.60;;;;;;6245685;22;20461;-85
2021/06/03 10:42:24;;;;;;;56.20;18.23;;;24.70;78.80;;;;;;6245787;23;20403;-85
2021/06/03 10:44:52;;;;;;;53.70;12.17;;;24.80;82.20;;;;;;6245439;23;20853;-84
2021/06/03 10:47:19;;;;;;;56.53;16.07;;;25.10;78.30;;;;;;6254499;23;20781;-85
2021/06/03 10:49:48;;;;;;;54.10;14.93;;;25.20;83.60;;;;;;6255713;23;20439;-84
2021/06/03 10:52:17;;;;;;;56.20;11.67;;;25.20;81.70;;;;;;6256208;23;20399;-86
2021/06/03 10:54:53;;;;;;;53.20;10.60;;;24.80;74.50;;;;;;6245950;23;20733;-87
2021/06/03 10:57:21;;;;;;;56.27;17.60;;;25.10;74.70;;;;;;6245785;23;20434;-85
2021/06/03 10:59:50;;;;;;;55.47;15.27;;;25.40;82.30;;;;;;6255710;23;20506;-86
2021/06/03 11:02:22;;;;;;;56.80;14.67;;;25.50;81.20;;;;;;6245273;23;20403;-85
2021/06/03 11:04:49;;;;;;;54.63;13.30;;;25.70;70.80;;;;;;6245814;23;20396;-83
2021/06/03 11:07:33;;;;;;;55.00;10.50;;;25.80;78.90;;;;;;6245940;23;20403;-85
2021/06/03 11:10:33;;;;;;;60.83;9.00;;;25.60;58.90;;;;;;6245525;23;20468;-87
2021/06/03 11:13:11;;;;;;;53.30;9.20;;;25.30;60.60;;;;;;6256039;23;20472;-86
2021/06/03 11:16:08;;;;;;;50.57;8.80;;;25.10;64.20;;;;;;6257150;23;20376;-86
2021/06/03 11:19:14;;;;;;;52.10;9.80;;;24.90;62.90;;;;;;6254460;23;20427;-85
2021/06/03 11:21:58;;;;;;;50.17;11.63;;;24.80;70.50;;;;;;6245769;23;20435;-86
2021/06/03 11:24:41;;;;;;;52.97;16.43;;;24.60;73.80;;;;;;6245779;23;20374;-85
2021/06/03 11:27:09;;;;;;;53.30;15.37;;;24.70;83.40;;;;;;6257034;23;20425;-87
2021/06/03 11:29:40;;;;;;;50.90;13.03;;;24.70;73.90;;;;;;6245796;23;20443;-85
2021/06/03 11:32:21;;;;;;;54.37;12.80;;;24.80;77.50;;;;;;6254341;23;20403;-85
2021/06/03 11:34:51;;;;;;;49.83;11.50;;;24.70;77.10;;;;;;6245712;23;20384;-84
2021/06/03 11:37:26;;;;;;;54.97;13.10;;;24.80;68.80;;;;;;6245684;23;20428;-86
2021/06/03 11:39:58;;;;;;;54.67;10.70;;;25.20;71.70;;;;;;6245706;22;20405;-85
2021/06/03 11:42:37;;;;;;;51.80;10.70;;;25.00;59.10;;;;;;6255576;23;20403;-88
2021/06/03 11:45:18;;;;;;;51.03;11.67;;;25.20;64.40;;;;;;6245891;23;20373;-87
2021/06/03 11:48:20;;;;;;;53.70;20.17;;;25.40;66.20;;;;;;6244235;23;20374;-84
2021/06/03 11:51:07;;;;;;;56.07;27.40;;;25.80;67.10;;;;;;6255453;23;20411;-86
2021/06/03 11:53:55;;;;;;;64.10;42.70;;;26.10;56.00;;;;;;6256982;23;20406;-87
2021/06/03 11:56:37;;;;;;;58.57;22.27;;;26.60;45.60;;;;;;6258909;23;20399;-89
2021/06/03 11:59:22;;;;;;;54.40;9.03;;;26.80;42.20;;;;;;6259336;23;20957;-86
2021/06/03 12:02:49;;;;;;;;;;;;;;;;;;;;;
2021/06/03 12:05:42;;;;;;;53.20;7.57;;;27.60;34.90;;;;;;6099191;23;20486;-87
2021/06/03 12:08:47;;;;;;;;;;;;;;;;;;;;;
2021/06/03 12:11:36;;;;;;;;;;;;;;;;;;;;;
2021/06/03 12:18:12;;;;;;;;;;;;;;;;;;;;;
2021/06/03 12:42:28;;;;;;;60.50;8.87;;;29.80;8.50;;;;;;5973166;23;20467;-85
2021/06/03 12:45:38;;;;;;;;;;;;;;;;;;;;;
2021/06/03 12:48:42;;;;;;;;;;;;;;;;;;;;;
2021/06/03 12:51:26;;;;;;;;;;;;;;;;;;;;;
2021/06/03 12:54:23;;;;;;;57.10;8.80;;;28.40;15.10;;;;;;6095431;23;20409;-84
2021/06/03 12:57:26;;;;;;;55.20;6.83;;;28.90;13.50;;;;;;5981828;24;20419;-85
2021/06/03 13:00:31;;;;;;;;;;;;;;;;;;;;;
2021/06/03 13:03:24;;;;;;;55.73;7.40;;;27.30;12.40;;;;;;5933133;24;20729;-86
2021/06/03 13:06:22;;;;;;;51.90;5.90;;;26.50;16.90;;;;;;6120610;23;20440;-85
2021/06/03 13:09:34;;;;;;;53.60;8.07;;;26.10;21.70;;;;;;6154765;23;20405;-84
2021/06/03 13:12:18;;;;;;;50.70;5.77;;;25.40;20.70;;;;;;6076068;23;20393;-84
2021/06/03 13:15:01;;;;;;;52.87;7.87;;;25.20;25.90;;;;;;6068529;23;20375;-87
2021/06/03 13:17:34;;;;;;;55.50;9.70;;;25.00;28.60;;;;;;6134822;23;20441;-87
2021/06/03 13:20:09;;;;;;;52.77;9.43;;;24.90;31.80;;;;;;6246622;23;20398;-89
2021/06/03 13:22:36;;;;;;;52.87;9.27;;;24.80;34.30;;;;;;6246904;23;20450;-81
2021/06/03 13:25:07;;;;;;;57.30;19.97;;;24.80;39.50;;;;;;6246885;23;20442;-83
2021/06/03 13:27:35;;;;;;;59.27;16.57;;;24.70;45.40;;;;;;6248066;23;20378;-83
2021/06/03 13:30:14;;;;;;;55.33;7.70;;;24.90;51.10;;;;;;6246774;23;20399;-84
2021/06/03 13:32:55;;;;;;;53.63;10.00;;;24.90;47.20;;;;;;6254916;23;20381;-84
2021/06/03 13:35:26;;;;;;;53.47;11.70;;;25.30;53.50;;;;;;6256711;23;20731;-85
2021/06/03 13:37:58;;;;;;;51.73;6.97;;;25.50;37.70;;;;;;6256345;23;20430;-84
2021/06/03 13:40:26;;;;;;;53.47;12.83;;;25.90;41.60;;;;;;6256259;22;20432;-84
2021/06/03 13:42:57;;;;;;;53.17;9.63;;;26.50;35.90;;;;;;6246255;23;20886;-86
2021/06/03 13:45:26;;;;;;;52.50;5.73;;;26.60;31.90;;;;;;6246444;23;20392;-85
2021/06/03 13:47:54;;;;;;;51.97;8.63;;;26.60;21.10;;;;;;6244816;23;20400;-85
2021/06/03 13:50:30;;;;;;;54.67;14.70;;;26.50;20.10;;;;;;6246504;23;20436;-85
2021/06/03 13:52:58;;;;;;;63.67;44.87;;;26.90;16.80;;;;;;6256742;23;20402;-86
2021/06/03 13:55:26;;;;;;;67.50;47.37;;;27.30;13.10;;;;;;6246353;23;20392;-85
2021/06/03 13:57:56;;;;;;;66.67;38.27;;;28.20;14.20;;;;;;6246240;23;20431;-85
2021/06/03 14:00:28;;;;;;;55.90;9.30;;;29.00;8.20;;;;;;6255961;23;20469;-86
2021/06/03 14:03:07;;;;;;;60.87;17.00;;;28.60;4.90;;;;;;6244845;23;20441;-86
2021/06/03 14:05:39;;;;;;;67.00;26.73;;;28.50;4.30;;;;;;6256463;23;20498;-86
2021/06/03 14:08:14;;;;;;;73.93;31.63;;;28.60;4.80;;;;;;6256200;23;20482;-86
2021/06/03 14:11:11;;;;;;;81.60;67.50;;;28.90;4.90;;;;;;6255963;23;20384;-84
2021/06/03 14:13:55;;;;;;;78.77;62.20;;;29.10;4.10;;;;;;6246315;23;20397;-86
2021/06/03 14:16:53;;;;;;;75.43;52.70;;;28.40;4.50;;;;;;6245954;23;20378;-83
2021/06/03 14:19:23;;;;;;;94.77;85.43;;;28.30;8.70;;;;;;6255945;23;20941;-84
2021/06/03 14:22:03;;;;;;;107.57;97.50;;;27.60;7.30;;;;;;6246182;23;20378;-86
2021/06/03 14:24:36;;;;;;;104.37;94.83;;;27.50;7.30;;;;;;6256351;23;20389;-83
2021/06/03 14:27:24;;;;;;;73.87;48.93;;;27.60;8.50;;;;;;6245756;23;20385;-85
2021/06/03 14:29:59;;;;;;;94.53;85.17;;;27.30;9.20;;;;;;6238249;23;20389;-83
2021/06/03 14:32:28;;;;;;;98.93;89.23;;;27.30;9.80;;;;;;6244616;23;20380;-83
2021/06/03 14:35:07;;;;;;;105.70;96.00;;;27.10;8.30;;;;;;6245860;23;20435;-82
2021/06/03 14:37:34;;;;;;;88.27;79.37;;;27.10;8.10;;;;;;6245580;23;20402;-84
2021/06/03 14:40:00;;;;;;;72.50;47.53;;;27.10;10.50;;;;;;6255687;22;20460;-83
2021/06/03 14:42:41;;;;;;;70.07;42.30;;;26.80;10.00;;;;;;6256244;23;20386;-84
2021/06/03 14:45:27;;;;;;;62.37;24.37;;;26.50;9.40;;;;;;6256251;23;20382;-85
2021/06/03 14:47:55;;;;;;;65.27;29.37;;;26.00;14.20;;;;;;6244322;23;20449;-83
2021/06/03 14:50:24;;;;;;;60.50;19.40;;;25.60;16.90;;;;;;6256107;23;20427;-83
2021/06/03 14:52:52;;;;;;;55.50;13.10;;;25.70;19.20;;;;;;6255872;23;20399;-83
2021/06/03 14:55:38;;;;;;;58.23;12.53;;;25.60;20.40;;;;;;6245530;23;20887;-83
2021/06/03 15:04:06;;;;;;;53.03;11.07;;;25.40;22.40;;;;;;6124665;23;20471;-83
2021/06/03 15:06:33;;;;;;;60.87;26.23;;;25.40;23.50;;;;;;6245924;23;20797;-83
2021/06/03 15:08:59;;;;;;;62.00;35.33;;;25.30;26.10;;;;;;6245728;23;20377;-83
2021/06/03 15:11:25;;;;;;;61.43;36.43;;;25.30;25.50;;;;;;6245956;23;20374;-83
2021/06/03 15:13:52;;;;;;;63.70;41.80;;;25.30;26.10;;;;;;6245863;23;20404;-83
2021/06/03 15:16:21;;;;;;;67.33;54.03;;;25.70;25.70;;;;;;6245916;23;20435;-83
2021/06/03 15:18:49;;;;;;;62.67;38.13;;;25.80;24.50;;;;;;6244346;23;20435;-83
2021/06/03 15:21:15;;;;;;;61.33;35.33;;;25.80;24.60;;;;;;6245617;23;20703;-82
2021/06/03 15:23:42;;;;;;;57.23;26.63;;;26.00;24.70;;;;;;6245703;23;20401;-83
2021/06/03 15:26:08;;;;;;;64.50;50.80;;;26.20;24.70;;;;;;6245481;23;20485;-83
2021/06/03 15:28:35;;;;;;;66.93;51.50;;;27.10;17.90;;;;;;6247836;23;20486;-83
2021/06/03 15:31:02;;;;;;;55.63;14.50;;;27.30;14.50;;;;;;6247851;23;20597;-83
2021/06/03 15:33:30;;;;;;;55.30;13.30;;;27.50;15.00;;;;;;6245862;23;20399;-83
2021/06/03 15:35:58;;;;;;;55.37;14.47;;;28.10;12.80;;;;;;6247435;23;20899;-83
2021/06/03 15:38:28;;;;;;;57.63;20.03;;;28.50;10.00;;;;;;6247473;22;20443;-83
2021/06/03 15:40:58;;;;;;;67.90;36.83;;;28.00;9.80;;;;;;6257342;23;20499;-84
2021/06/03 15:43:50;;;;;;;;;;;;;;;;;;;;;
2021/06/03 15:46:28;;;;;;;;;;;;;;;;;;;;;
2021/06/03 15:49:33;;;;;;;134.37;123.63;;;29.30;7.10;;;;;;6249490;23;20496;-84
2021/06/03 15:52:05;;;;;;;89.03;72.10;;;29.30;6.90;;;;;;6254705;23;20461;-83
2021/06/03 15:54:48;;;;;;;72.07;26.80;;;29.30;7.70;;;;;;6244570;23;20846;-86
2021/06/03 15:57:44;;;;;;;68.90;24.43;;;29.60;6.30;;;;;;6254643;23;20396;-87
2021/06/03 16:00:12;;;;;;;68.90;25.77;;;28.30;9.80;;;;;;6244783;23;20878;-84
2021/06/03 16:02:39;;;;;;;70.00;28.37;;;27.20;12.50;;;;;;6247213;23;20460;-86
2021/06/03 16:05:09;;;;;;;73.77;45.20;;;27.50;13.30;;;;;;6246342;23;20428;-86
2021/06/03 16:07:35;;;;;;;113.63;103.27;;;27.60;12.00;;;;;;6242047;23;20381;-85
2021/06/03 16:10:05;;;;;;;89.90;80.40;;;27.70;12.50;;;;;;6236349;23;20421;-86
2021/06/03 16:12:31;;;;;;;67.17;30.03;;;27.90;9.70;;;;;;6238793;23;20385;-84
2021/06/03 16:14:59;;;;;;;67.47;33.03;;;28.20;9.80;;;;;;6242950;23;20403;-86
2021/06/03 16:17:26;;;;;;;68.53;33.00;;;27.90;8.00;;;;;;6241866;23;20396;-86
2021/06/03 16:20:06;;;;;;;65.33;22.00;;;27.50;10.20;;;;;;6238675;23;20407;-86
2021/06/03 16:23:23;;;;;;;;;;;;;;;;;;;;;
2021/06/03 16:26:12;;;;;;;63.63;13.73;;;28.20;6.10;;;;;;6142231;23;20380;-86
2021/06/03 16:28:43;;;;;;;62.40;13.17;;;28.30;7.20;;;;;;6250320;23;20731;-87
2021/06/03 16:31:13;;;;;;;62.40;10.83;;;29.30;2.70;;;;;;6240234;23;20407;-87
2021/06/03 16:34:08;;;;;;;66.60;11.07;;;30.10;1.00;;;;;;6249142;23;20426;-88
2021/06/03 16:37:17;;;;;;;64.40;9.43;;;29.50;1.00;;;;;;6240001;23;20403;-86
2021/06/03 16:40:08;;;;;;;65.20;9.83;;;30.20;2.00;;;;;;6098856;23;20451;-87
2021/06/03 16:43:13;;;;;;;63.47;10.00;;;30.00;1.00;;;;;;6157295;23;20415;-85
2021/06/03 16:46:12;;;;;;;64.10;9.70;;;30.10;1.00;;;;;;6105753;23;20509;-85
2021/06/03 16:49:25;;;;;;;64.90;8.70;;;30.00;1.00;;;;;;6141519;23;20508;-87
2021/06/03 16:52:07;;;;;;;62.97;8.77;;;29.90;1.00;;;;;;6094401;23;20495;-86
2021/06/03 16:54:48;;;;;;;;;;;;;;;;;;;;;
2021/06/03 16:57:45;;;;;;;65.47;10.53;;;29.40;1.00;;;;;;6104844;23;20378;-86
2021/06/03 17:04:13;;;;;;;61.00;7.30;;;28.90;1.60;;;;;;6093408;23;20390;-87
2021/06/03 17:07:15;;;;;;;62.10;9.43;;;28.10;1.90;;;;;;6094948;23;20415;-87
2021/06/03 17:24:22;;;;;;;58.57;9.33;;;26.30;11.00;;;;;;5887328;24;20419;-85
2021/06/03 17:26:52;;;;;;;59.10;10.60;;;26.90;9.30;;;;;;6043954;23;20950;-86
2021/06/03 17:29:19;;;;;;;60.03;12.87;;;27.20;8.70;;;;;;6243282;23;20386;-87
2021/06/03 17:31:53;;;;;;;65.00;22.93;;;26.50;8.70;;;;;;6256934;23;20843;-85
2021/06/03 17:34:22;;;;;;;79.60;70.60;;;26.20;9.40;;;;;;6246623;23;20419;-84
2021/06/03 17:36:52;;;;;;;75.87;55.37;;;25.60;14.00;;;;;;6246597;22;20726;-86
2021/06/03 17:40:09;;;;;;;;;;;;;;;;;;;;;
2021/06/03 17:49:52;;;;;;;60.20;23.20;;;24.60;23.40;;;;;;6253523;23;20944;-86
2021/06/03 17:55:23;;;;;;;54.20;13.07;;;24.20;28.30;;;;;;6241451;23;20461;-86
2021/06/03 17:57:59;;;;;;;54.80;13.43;;;24.00;31.00;;;;;;6256221;23;20984;-86
2021/06/03 18:03:36;;;;;;;54.97;16.13;;;23.70;37.30;;;;;;5950702;24;20745;-87
2021/06/03 18:06:37;;;;;;;53.67;10.80;;;23.60;43.70;;;;;;6058753;23;20443;-85
2021/06/03 18:09:06;;;;;;;59.57;30.43;;;23.40;44.80;;;;;;6248349;23;20379;-86
2021/06/03 18:11:45;;;;;;;47.23;12.00;;;23.40;51.20;;;;;;6257455;23;20443;-86
2021/06/03 18:14:12;;;;;;;54.13;24.67;;;23.30;59.70;;;;;;6256873;23;20438;-86
2021/06/03 18:16:48;;;;;;;63.43;49.43;;;23.10;55.50;;;;;;6257511;23;20467;-83
2021/06/03 18:19:18;;;;;;;56.87;28.83;;;23.00;49.80;;;;;;6247105;23;20570;-87
2021/06/03 18:21:45;;;;;;;58.47;30.80;;;22.90;53.70;;;;;;6246547;23;20411;-85